Pagrindinis puslapis
METAR-TAF:

METAR-TAF

Oro uostai :

Radom-Sadków

Radomas, Lenkija

platuma: 51-23-21N, ilguma: 21-12-49E, Aukštis: 186 m

Dabartinis oras

Ataskaita buvo paskelbta 20 minutes, ne 02:00 UTC
Vėjas 2 kt nuo kintamojo kryptimis
Temperatūra 9°C
Drėgmė 87%
Slėgis 1015 hPa
Matomumas 10 km arba daugiau
nėra debesų žemiau 1500 m ir nėra kamuolinių lietaus debesų

METAR: EPRA 280200Z VRB02KT CAVOK 09/07 Q1015

Laikas: 03:20 (02:20 UTC)

Prognozė

Ataskaita buvo paskelbta 2 valandos ir 50 minutes, ne 23:30 UTC
Prognozė galioja nuo 28 metu 00 UTC su 28 metu 09 UTC
Vėjas 6 kt iš Pietų/Pietryčių
Matomumas 10 km arba daugiau
nėra debesų žemiau 1500 m ir nėra kamuolinių lietaus debesų
Tikimybė 30%
nuo 28 metu 02 UTC su 28 metu 05 UTC
Matomumas: 5000 m
rūkana,

TAF: EPRA 272330Z 2800/2809 16006KT CAVOK PROB30 2802/2805 5000 BR

Orai ataskaitas ir orų prognozės (METAR, TAF).

turimą stotys yra geltonos ir raudonos taškus žemėlapyje.

Perkelti pele per norėdami pamatyti stoties vardą.

Tada spustelėkite, norėdami matyti oro stebėjimo ir prognozės.

Norėdami pakeisti žemėlapį: spustelėkite ant žalios mygtukų su juodo kryžiaus žemyn,; žalią mygtuką su brūkšneliu, jei norite nutolinti; arba žalių rodyklių gretimoms žemėlapius.


METAR-TAF: